Time;durP1;ratioP1;P1;durP2;ratioP2;P2;SDS_P1;SDS_P2;PMS_P1;PMS_P2;Temp;Humidity;BMP_temperature;BMP_pressure;BME280_temperature;BME280_humidity;BME280_pressure;Samples;Min_cycle;Max_cycle;Signal;HPM_P1;HPM_P2
2021/04/05 00:01:25;;;;;;;22.73;16.45;;;;;;;8.57;51.66;100003.59;10334481;28;20561;-56
2021/04/05 00:06:26;;;;;;;25.63;17.52;;;;;;;8.62;51.59;99996.16;10334690;28;20072;-59
2021/04/05 00:11:27;;;;;;;24.38;17.13;;;;;;;8.53;51.38;99994.19;10333193;28;20077;-56
2021/04/05 00:16:28;;;;;;;22.08;16.50;;;;;;;8.44;51.89;99983.31;10332921;28;20078;-56
2021/04/05 00:21:29;;;;;;;27.35;23.25;;;;;;;8.23;52.38;99964.53;10335591;28;20137;-56
2021/04/05 00:26:30;;;;;;;32.72;24.17;;;;;;;8.00;52.83;99958.31;10336365;28;20061;-56
2021/04/05 00:31:31;;;;;;;37.25;23.10;;;;;;;8.01;52.82;99922.88;10335854;28;20050;-55
2021/04/05 00:36:32;;;;;;;33.03;22.48;;;;;;;7.89;53.07;99913.22;10334175;28;20526;-56
2021/04/05 00:41:33;;;;;;;33.88;23.17;;;;;;;7.98;53.04;99931.06;10334971;28;20052;-55
2021/04/05 00:46:35;;;;;;;34.13;23.98;;;;;;;8.01;52.81;99909.63;10334737;28;20060;-60
2021/04/05 00:51:35;;;;;;;34.83;22.58;;;;;;;7.59;53.04;99840.34;10332008;28;20045;-56
2021/04/05 00:56:36;;;;;;;33.28;23.42;;;;;;;7.85;52.80;99875.50;10330184;28;20046;-56
2021/04/05 01:01:37;;;;;;;33.35;24.30;;;;;;;7.78;53.43;99876.91;10334674;23;20584;-61
2021/04/05 01:06:38;;;;;;;32.92;26.05;;;;;;;7.69;53.76;99870.50;10380879;28;24855;-61
2021/04/05 01:11:39;;;;;;;36.60;24.35;;;;;;;7.59;53.81;99854.44;10377383;28;21566;-63
2021/04/05 01:16:40;;;;;;;31.23;23.52;;;;;;;7.59;53.91;99837.69;10375763;28;20049;-61
2021/04/05 01:21:48;;;;;;;33.22;24.00;;;;;;;7.53;53.98;99827.56;10363969;28;20053;-60
2021/04/05 01:26:50;;;;;;;39.28;25.02;;;;;;;7.35;54.83;99835.91;10356822;28;20076;-63
2021/04/05 01:31:51;;;;;;;27.45;21.65;;;;;;;7.38;54.22;99822.44;10379167;28;20053;-60
2021/04/05 01:36:52;;;;;;;29.80;22.35;;;;;;;7.38;54.50;99813.66;10376460;28;20053;-60
2021/04/05 01:41:52;;;;;;;28.80;22.02;;;;;;;7.26;54.58;99795.06;10375795;28;20053;-63
2021/04/05 01:46:53;;;;;;;33.13;23.77;;;;;;;7.27;54.60;99774.75;10368443;28;20076;-61
2021/04/05 01:51:55;;;;;;;31.15;23.50;;;;;;;7.08;55.02;99752.28;10376280;28;20660;-60
2021/04/05 01:56:56;;;;;;;32.85;22.63;;;;;;;6.95;55.82;99743.56;10377434;28;20053;-61
2021/04/05 02:01:57;;;;;;;34.17;24.10;;;;;;;6.83;56.14;99732.09;10376362;28;20049;-60
2021/04/05 02:06:58;;;;;;;34.83;23.30;;;;;;;6.66;56.57;99728.00;10377236;28;20054;-60
2021/04/05 02:12:00;;;;;;;35.72;24.58;;;;;;;6.71;56.55;99727.66;10375358;28;20076;-62
2021/04/05 02:17:01;;;;;;;33.47;22.52;;;;;;;6.53;57.07;99701.63;10374113;28;20123;-60
2021/04/05 02:22:02;;;;;;;32.83;22.83;;;;;;;6.55;57.54;99677.72;10364718;28;20139;-60
2021/04/05 02:27:04;;;;;;;33.00;23.73;;;;;;;6.50;57.94;99658.66;10364035;28;20099;-60
2021/04/05 02:32:05;;;;;;;34.92;23.73;;;;;;;6.35;58.79;99650.06;10364183;28;20186;-60
2021/04/05 02:37:06;;;;;;;36.45;23.55;;;;;;;6.21;59.34;99648.41;10365132;28;20041;-59
2021/04/05 02:42:08;;;;;;;29.70;20.77;;;;;;;6.21;59.67;99637.84;10376907;28;20415;-59
2021/04/05 02:47:09;;;;;;;28.05;20.20;;;;;;;6.22;59.36;99628.97;10374869;28;20037;-58
2021/04/05 02:52:10;;;;;;;28.85;20.67;;;;;;;6.12;60.15;99612.09;10368571;28;20057;-60
2021/04/05 02:57:12;;;;;;;30.90;20.15;;;;;;;6.14;60.49;99615.44;10375629;28;20076;-58
2021/04/05 03:02:13;;;;;;;29.95;19.30;;;;;;;6.00;60.82;99601.47;10372874;28;20142;-58
2021/04/05 03:07:14;;;;;;;27.58;19.27;;;;;;;6.10;60.53;99592.88;10361693;28;20057;-58
2021/04/05 03:12:17;;;;;;;28.83;18.45;;;;;;;6.08;60.24;99587.69;10376670;28;20101;-59
2021/04/05 03:17:19;;;;;;;27.55;19.30;;;;;;;6.26;60.08;99598.72;10383812;28;20123;-59
2021/04/05 03:22:21;;;;;;;25.15;17.55;;;;;;;6.37;59.29;99580.25;10382688;28;20057;-59
2021/04/05 03:27:22;;;;;;;31.33;18.58;;;;;;;6.46;58.86;99573.47;10382413;28;20045;-59
2021/04/05 03:32:23;;;;;;;29.15;19.63;;;;;;;6.38;59.12;99565.25;10378143;28;20514;-59
2021/04/05 03:37:28;;;;;;;32.92;20.40;;;;;;;6.31;58.85;99575.44;10378500;28;20790;-58
2021/04/05 03:42:36;;;;;;;30.75;20.48;;;;;;;6.26;59.06;99555.56;10363552;28;20045;-59
2021/04/05 03:47:52;;;;;;;33.30;21.92;;;;;;;6.13;59.34;99539.78;10361558;28;20061;-58
2021/04/05 03:53:07;;;;;;;33.88;21.15;;;;;;;5.91;60.14;99520.19;10378899;28;20053;-60
2021/04/05 03:58:10;;;;;;;;;;;;;;;5.86;60.38;99517.03;10375267;28;20045;-60
2021/04/05 04:03:15;;;;;;;33.65;21.70;;;;;;;5.72;61.03;99499.56;10366596;28;20016;-59
2021/04/05 04:13:43;;;;;;;29.48;21.92;;;;;;;5.61;61.54;99476.53;10376678;28;20097;-59
2021/04/05 04:18:44;;;;;;;30.50;20.70;;;;;;;5.49;62.16;99458.97;10382203;28;20123;-59
2021/04/05 04:23:45;;;;;;;28.27;19.98;;;;;;;5.51;62.10;99448.28;10380934;28;20517;-59
2021/04/05 04:28:46;;;;;;;29.88;19.77;;;;;;;5.49;61.84;99457.19;10361028;28;20099;-60
2021/04/05 04:33:48;;;;;;;25.27;19.05;;;;;;;5.65;60.90;99441.06;10356049;28;20046;-60
2021/04/05 04:38:53;;;;;;;23.38;19.17;;;;;;;5.56;62.04;99425.88;10376214;28;20049;-58
2021/04/05 04:44:00;;;;;;;28.85;18.90;;;;;;;5.49;62.09;99430.78;10372939;28;20053;-58
2021/04/05 04:49:10;;;;;;;29.08;19.83;;;;;;;5.32;62.77;99408.22;10374921;28;20498;-60
2021/04/05 04:54:11;;;;;;;28.50;19.08;;;;;;;5.69;61.88;99409.13;10358953;28;20504;-62
2021/04/05 04:59:12;;;;;;;28.20;19.80;;;;;;;5.77;61.67;99393.59;10376631;28;20046;-60
2021/04/05 05:04:20;;;;;;;25.65;17.65;;;;;;;5.73;62.18;99394.75;10374323;28;20080;-59
2021/04/05 05:09:21;;;;;;;25.95;18.30;;;;;;;5.74;62.47;99388.53;10368789;28;20065;-62
2021/04/05 05:14:23;;;;;;;26.17;17.95;;;;;;;5.82;62.16;99379.09;10374357;28;20054;-59
2021/04/05 05:19:24;;;;;;;22.73;17.10;;;;;;;5.82;62.50;99375.59;10376475;28;20049;-58
2021/04/05 05:24:28;;;;;;;27.15;17.65;;;;;;;5.80;62.86;99366.94;10381995;28;20038;-59
2021/04/05 05:29:30;;;;;;;25.33;17.40;;;;;;;5.89;62.64;99360.97;10383091;28;20103;-59
2021/04/05 05:34:31;;;;;;;26.02;17.65;;;;;;;5.77;63.17;99359.25;10375364;28;20119;-58
2021/04/05 05:39:32;;;;;;;21.98;15.82;;;;;;;5.87;62.82;99354.97;10375543;28;20065;-60
2021/04/05 05:44:42;;;;;;;23.52;16.13;;;;;;;5.96;63.14;99341.06;10367999;28;20069;-58
2021/04/05 05:49:46;;;;;;;22.50;15.60;;;;;;;5.81;64.00;99321.94;10372659;28;20146;-58
2021/04/05 05:54:56;;;;;;;24.02;15.65;;;;;;;5.91;63.41;99319.41;10373320;28;20092;-59
2021/04/05 06:00:14;;;;;;;22.85;14.82;;;;;;;5.99;63.37;99317.09;10367881;28;20069;-58
2021/04/05 06:05:42;;;;;;;19.70;14.07;;;;;;;6.03;63.33;99311.56;10372463;28;20099;-59
2021/04/05 06:11:08;;;;;;;18.77;12.57;;;;;;;6.25;62.80;99316.88;10368267;28;20081;-61
2021/04/05 06:16:33;;;;;;;21.88;13.02;;;;;;;6.32;62.47;99312.81;10360135;28;20057;-59
2021/04/05 06:21:40;;;;;;;16.83;12.70;;;;;;;6.46;61.92;99318.81;10344534;28;20424;-60
2021/04/05 06:27:04;;;;;;;19.98;12.73;;;;;;;6.53;61.58;99320.00;10335612;28;20587;-61
2021/04/05 06:32:15;;;;;;;19.50;12.63;;;;;;;6.72;60.71;99314.97;10331185;28;20053;-59
2021/04/05 06:37:43;;;;;;;18.30;10.88;;;;;;;6.77;60.36;99308.44;10323580;28;20126;-60
2021/04/05 06:43:16;;;;;;;21.40;13.38;;;;;;;6.85;59.90;99313.97;10350554;28;20081;-59
2021/04/05 06:48:30;;;;;;;21.15;12.23;;;;;;;6.95;59.47;99296.41;10352333;28;20132;-59
2021/04/05 06:53:59;;;;;;;20.63;11.33;;;;;;;7.01;59.46;99287.97;10358269;28;20058;-61
2021/04/05 06:59:30;;;;;;;17.33;11.20;;;;;;;7.07;59.13;99292.75;10352173;28;20382;-58
2021/04/05 07:04:51;;;;;;;19.60;13.27;;;;;;;7.17;59.41;99298.13;10366632;22;20046;-54
2021/04/05 07:10:12;;;;;;;17.02;11.73;;;;;;;7.14;59.46;99313.44;10337970;28;20501;-55
2021/04/05 07:15:24;;;;;;;21.70;13.02;;;;;;;7.20;59.46;99307.63;10302652;28;20586;-55
2021/04/05 07:21:03;;;;;;;15.50;12.35;;;;;;;7.30;59.17;99308.56;10301444;28;20439;-54
2021/04/05 07:26:24;;;;;;;15.70;12.60;;;;;;;7.33;59.41;99307.47;10303859;28;20050;-55
2021/04/05 07:31:50;;;;;;;20.92;13.45;;;;;;;7.41;59.25;99287.31;10305858;28;20052;-55
2021/04/05 07:37:04;;;;;;;19.45;13.30;;;;;;;7.54;58.93;99278.38;10321059;28;20070;-54
2021/04/05 07:42:23;;;;;;;21.83;13.98;;;;;;;7.66;58.18;99258.81;10301921;28;20116;-54
2021/04/05 07:47:36;;;;;;;20.65;12.90;;;;;;;7.66;58.64;99261.47;10295497;28;20083;-54
2021/04/05 07:52:50;;;;;;;18.10;13.82;;;;;;;7.65;58.54;99251.81;10274934;28;20431;-55
2021/04/05 07:58:15;;;;;;;20.13;14.48;;;;;;;7.57;58.81;99247.19;10298393;28;20460;-54
2021/04/05 08:03:19;;;;;;;21.30;14.77;;;;;;;7.66;58.43;99247.38;10300180;28;20219;-56
2021/04/05 08:08:41;;;;;;;22.05;15.50;;;;;;;7.75;58.35;99239.50;10302702;28;20503;-55
2021/04/05 08:14:05;;;;;;;26.25;18.08;;;;;;;7.79;58.36;99238.25;10296698;28;20057;-56
2021/04/05 08:19:19;;;;;;;24.63;17.08;;;;;;;7.66;58.69;99220.91;10300050;28;20041;-55
2021/04/05 08:24:42;;;;;;;25.83;16.55;;;;;;;7.79;58.88;99211.78;10304438;28;20050;-55
2021/04/05 08:29:53;;;;;;;20.25;15.32;;;;;;;7.84;58.48;99205.25;10301030;28;20125;-57
2021/04/05 08:35:28;;;;;;;25.33;15.98;;;;;;;7.59;58.51;99165.78;10299618;28;20049;-55
2021/04/05 08:40:48;;;;;;;23.40;15.65;;;;;;;8.02;57.92;99216.06;10306788;28;20049;-55
2021/04/05 08:45:57;;;;;;;23.10;16.15;;;;;;;8.12;57.69;99208.97;10299104;28;20074;-55
2021/04/05 08:51:02;;;;;;;23.55;17.13;;;;;;;8.14;57.76;99210.53;10296438;28;20118;-54
2021/04/05 08:56:04;;;;;;;26.85;16.60;;;;;;;8.26;57.49;99210.44;10294930;28;20701;-57
2021/04/05 09:01:11;;;;;;;22.52;16.25;;;;;;;8.37;56.70;99189.13;10302944;28;20474;-53
2021/04/05 09:06:18;;;;;;;25.42;15.73;;;;;;;8.56;56.82;99195.50;10298802;28;20649;-57
2021/04/05 09:11:20;;;;;;;20.95;15.10;;;;;;;8.35;56.91;99175.16;10295764;28;20119;-58
2021/04/05 09:16:24;;;;;;;23.77;16.15;;;;;;;8.45;57.26;99194.63;10294858;28;20181;-53
2021/04/05 09:21:45;;;;;;;22.63;15.65;;;;;;;8.38;57.25;99188.16;10297145;28;20050;-57
2021/04/05 09:26:58;;;;;;;25.52;15.23;;;;;;;8.42;59.12;99194.88;10302253;28;20054;-57
2021/04/05 09:32:10;;;;;;;21.63;14.55;;;;;;;8.47;57.79;99187.34;10295148;28;20048;-56
2021/04/05 09:37:39;;;;;;;23.10;16.33;;;;;;;8.45;57.69;99184.03;10303808;28;20151;-54
2021/04/05 09:43:11;;;;;;;23.63;16.70;;;;;;;8.34;57.97;99186.72;10289530;28;21242;-53
2021/04/05 09:48:23;;;;;;;25.48;18.23;;;;;;;8.34;58.06;99178.78;10294469;28;20208;-55
2021/04/05 09:53:54;;;;;;;22.40;16.45;;;;;;;8.36;57.96;99176.84;10298091;28;20053;-55
2021/04/05 09:59:04;;;;;;;21.15;15.30;;;;;;;8.25;58.50;99150.44;10293143;28;20069;-54
2021/04/05 10:04:10;;;;;;;20.08;14.43;;;;;;;8.24;58.56;99135.50;10294451;28;20096;-54
2021/04/05 10:09:11;;;;;;;19.83;13.65;;;;;;;8.34;58.61;99149.63;10297607;28;20660;-54
2021/04/05 10:14:21;;;;;;;18.58;12.40;;;;;;;8.19;59.28;99149.16;10293448;28;20486;-54
2021/04/05 10:19:34;;;;;;;21.13;13.15;;;;;;;8.28;59.35;99155.47;10290630;28;20043;-54
2021/04/05 10:24:41;;;;;;;20.38;12.85;;;;;;;8.26;59.55;99160.06;10297655;28;20242;-54
2021/04/05 10:29:44;;;;;;;19.55;13.52;;;;;;;8.30;60.52;99148.19;10302362;28;20425;-55
2021/04/05 10:34:49;;;;;;;20.65;13.07;;;;;;;8.20;62.11;99157.97;10308640;28;20137;-56
2021/04/05 10:39:53;;;;;;;17.98;12.60;;;;;;;8.16;63.01;99149.44;10305750;28;20143;-56
2021/04/05 10:45:15;;;;;;;17.63;12.88;;;;;;;8.08;63.56;99128.06;10307976;28;20128;-54
2021/04/05 10:50:23;;;;;;;16.33;11.75;;;;;;;8.26;64.07;99141.50;10302236;28;20053;-54
2021/04/05 10:55:28;;;;;;;16.92;12.20;;;;;;;8.12;66.02;99130.31;10306290;28;20513;-54
2021/04/05 11:00:36;;;;;;;20.45;11.82;;;;;;;8.13;67.30;99128.50;10302392;28;20058;-52
2021/04/05 11:05:38;;;;;;;15.20;11.48;;;;;;;7.97;68.18;99143.09;10303709;28;20054;-54
2021/04/05 11:10:39;;;;;;;17.38;11.60;;;;;;;7.95;69.17;99144.19;10303734;28;20572;-55
2021/04/05 11:15:42;;;;;;;14.73;11.65;;;;;;;7.89;69.50;99134.13;10300586;28;20526;-55
2021/04/05 11:20:47;;;;;;;13.70;11.23;;;;;;;7.95;70.09;99134.44;10303395;28;20053;-55
2021/04/05 11:25:52;;;;;;;;;;;;;;;7.93;70.51;99146.16;10303855;28;20162;-55
2021/04/05 11:31:15;;;;;;;13.37;10.03;;;;;;;7.83;70.98;99145.28;10299726;28;20011;-53
2021/04/05 11:36:17;;;;;;;12.85;9.75;;;;;;;7.79;70.38;99149.97;10303042;28;20065;-54
2021/04/05 11:41:24;;;;;;;11.13;8.82;;;;;;;7.72;70.33;99146.22;10303093;28;20100;-54
2021/04/05 11:46:36;;;;;;;12.68;8.95;;;;;;;7.59;70.94;99171.06;10295135;28;20549;-54
2021/04/05 11:51:45;;;;;;;11.80;7.93;;;;;;;7.44;72.01;99167.91;10300509;28;20050;-55
2021/04/05 11:56:47;;;;;;;13.40;8.73;;;;;;;7.35;72.73;99158.13;10302653;28;20081;-54
2021/04/05 12:01:57;;;;;;;8.55;6.43;;;;;;;7.53;71.54;99170.78;10302030;28;20050;-54
2021/04/05 12:07:05;;;;;;;9.18;6.18;;;;;;;8.22;70.05;99183.34;10295808;28;20084;-55
2021/04/05 12:12:10;;;;;;;5.57;4.60;;;;;;;7.71;70.53;99195.69;10300987;28;20129;-54
2021/04/05 12:17:13;;;;;;;5.25;3.30;;;;;;;7.46;69.14;99190.78;10298753;28;20075;-55
2021/04/05 12:22:14;;;;;;;2.45;1.95;;;;;;;7.42;68.95;99212.22;10299805;28;20525;-55
2021/04/05 12:27:16;;;;;;;1.85;1.30;;;;;;;7.27;68.49;99216.16;10300680;28;20500;-55
2021/04/05 12:32:19;;;;;;;1.42;1.02;;;;;;;6.96;69.93;99253.09;10298415;28;20566;-53
2021/04/05 12:37:21;;;;;;;1.02;0.50;;;;;;;6.64;71.54;99267.13;10299067;28;20050;-54
2021/04/05 12:42:29;;;;;;;0.68;0.40;;;;;;;6.25;69.61;99269.31;10301346;28;20461;-53
2021/04/05 12:47:33;;;;;;;0.50;0.20;;;;;;;5.97;67.26;99275.88;10295051;28;20578;-54
2021/04/05 12:52:38;;;;;;;0.80;0.45;;;;;;;6.05;64.64;99291.13;10294609;28;20237;-54
2021/04/05 12:57:39;;;;;;;1.25;0.40;;;;;;;5.90;63.39;99301.91;10295588;28;20042;-53
2021/04/05 13:02:44;;;;;;;1.13;0.47;;;;;;;5.87;63.45;99288.06;10301107;28;20637;-54
2021/04/05 13:07:46;;;;;;;;;;;;;;;5.42;63.14;99296.69;10327714;22;20060;-61
2021/04/05 13:12:52;;;;;;;1.95;0.40;;;;;;;5.49;58.94;99296.16;10377539;28;19921;-60
2021/04/05 13:17:56;;;;;;;1.55;0.45;;;;;;;5.62;60.21;99303.16;10375956;28;20038;-62
2021/04/05 13:23:01;;;;;;;2.20;0.75;;;;;;;5.95;56.52;99315.59;10379551;28;20053;-64
2021/04/05 13:28:04;;;;;;;1.33;0.40;;;;;;;5.57;55.78;99348.38;10377549;28;20775;-67
2021/04/05 13:33:09;;;;;;;1.95;0.85;;;;;;;5.27;57.62;99341.75;10354730;28;20749;-61
2021/04/05 13:38:12;;;;;;;1.38;0.57;;;;;;;5.24;59.02;99355.19;10369837;28;20053;-66
2021/04/05 13:43:18;;;;;;;1.23;0.88;;;;;;;5.23;60.09;99365.84;10357560;28;20045;-63
2021/04/05 13:48:27;;;;;;;2.47;1.00;;;;;;;5.17;60.78;99361.84;10372630;28;20057;-62
2021/04/05 13:53:46;;;;;;;2.33;1.15;;;;;;;5.24;61.32;99364.88;10375543;28;20060;-62
2021/04/05 13:58:51;;;;;;;1.58;0.93;;;;;;;5.25;61.58;99382.41;10368770;28;20049;-64
2021/04/05 14:03:55;;;;;;;2.30;1.35;;;;;;;5.00;62.10;99394.72;10366895;28;20114;-61
2021/04/05 14:08:57;;;;;;;2.00;1.20;;;;;;;4.64;64.50;99422.72;10351251;28;20066;-63
2021/04/05 14:13:59;;;;;;;2.03;0.85;;;;;;;4.48;66.32;99432.63;10370410;28;20141;-63
2021/04/05 14:19:19;;;;;;;1.33;1.00;;;;;;;5.02;66.21;99421.81;10356523;28;20064;-63
2021/04/05 14:24:26;;;;;;;1.50;0.93;;;;;;;5.48;63.80;99420.34;10358001;28;20075;-62
2021/04/05 14:29:42;;;;;;;1.15;0.52;;;;;;;5.76;60.66;99420.94;10373662;28;20178;-67
2021/04/05 14:34:49;;;;;;;2.15;0.85;;;;;;;6.21;60.61;99421.13;10356030;28;20045;-63
2021/04/05 14:39:56;;;;;;;2.08;0.63;;;;;;;6.09;53.29;99427.34;10380731;28;20046;-63
2021/04/05 14:45:01;;;;;;;1.08;0.57;;;;;;;6.32;52.31;99439.69;10385664;28;20057;-62
2021/04/05 14:50:08;;;;;;;1.10;0.52;;;;;;;6.54;47.63;99432.75;10392993;28;20057;-64
2021/04/05 14:55:15;;;;;;;2.67;0.88;;;;;;;6.18;47.75;99438.09;10363360;28;20076;-65
2021/04/05 15:00:26;;;;;;;2.42;1.17;;;;;;;5.52;52.52;99485.13;10368350;28;20053;-64
2021/04/05 15:05:37;;;;;;;3.70;0.80;;;;;;;5.04;52.99;99487.66;10343085;28;20041;-62
2021/04/05 15:10:39;;;;;;;1.48;1.08;;;;;;;4.96;51.71;99522.47;10343057;28;20203;-62
2021/04/05 15:15:42;;;;;;;2.40;0.90;;;;;;;4.64;59.36;99527.31;10365236;28;20054;-61
2021/04/05 15:20:44;;;;;;;1.90;0.90;;;;;;;4.77;53.21;99507.06;10356097;28;20068;-64
2021/04/05 15:25:49;;;;;;;1.90;0.88;;;;;;;5.12;53.39;99490.63;10349695;28;20068;-61
2021/04/05 15:30:51;;;;;;;3.38;1.20;;;;;;;5.37;51.30;99504.72;10327618;28;20104;-65
2021/04/05 15:35:52;;;;;;;1.85;0.73;;;;;;;5.23;51.69;99497.78;10352314;28;20088;-63
2021/04/05 15:40:54;;;;;;;2.35;1.00;;;;;;;5.60;51.06;99508.34;10334656;28;20123;-64
2021/04/05 15:46:04;;;;;;;2.30;1.20;;;;;;;5.28;50.85;99514.97;10349105;28;20400;-61
2021/04/05 15:51:29;;;;;;;2.20;1.20;;;;;;;5.44;50.12;99520.00;10348246;28;20087;-62
2021/04/05 15:56:37;;;;;;;1.80;1.38;;;;;;;5.21;47.27;99529.53;10352932;28;21257;-62
2021/04/05 16:01:55;;;;;;;3.65;1.00;;;;;;;4.60;44.64;99532.78;10348068;28;20052;-65
2021/04/05 16:07:04;;;;;;;3.63;1.10;;;;;;;4.59;45.49;99531.13;10329655;28;20100;-63
2021/04/05 16:12:16;;;;;;;1.38;0.80;;;;;;;4.66;46.15;99530.69;10341261;28;20052;-62
2021/04/05 16:17:50;;;;;;;3.58;1.17;;;;;;;4.49;44.74;99529.16;10365713;28;20083;-66
2021/04/05 16:22:57;;;;;;;2.25;1.25;;;;;;;4.48;45.29;99549.41;10353018;28;20052;-66
2021/04/05 16:28:01;;;;;;;2.67;1.17;;;;;;;4.76;41.81;99553.69;10350095;28;20050;-66
2021/04/05 16:33:02;;;;;;;1.80;1.00;;;;;;;4.57;41.47;99529.53;10351843;28;20099;-63
2021/04/05 16:38:06;;;;;;;3.38;1.05;;;;;;;4.83;42.66;99551.47;10329233;28;20050;-65
2021/04/05 16:43:22;;;;;;;1.80;0.82;;;;;;;4.69;42.72;99554.22;10359746;28;20049;-61
2021/04/05 16:48:24;;;;;;;1.27;0.60;;;;;;;4.53;41.10;99576.31;10357974;28;20048;-63
2021/04/05 16:53:30;;;;;;;1.17;0.60;;;;;;;4.65;41.04;99572.00;10365097;28;20688;-62
2021/04/05 16:58:42;;;;;;;3.20;0.60;;;;;;;4.47;40.27;99583.78;10350998;28;20041;-60
2021/04/05 17:03:51;;;;;;;2.17;1.30;;;;;;;4.48;40.68;99603.94;10332971;28;20042;-60
2021/04/05 17:09:04;;;;;;;2.75;0.70;;;;;;;4.36;41.21;99611.69;10297436;23;20053;-69
2021/04/05 17:14:23;;;;;;;3.10;0.88;;;;;;;4.38;42.22;99630.91;10368184;28;20056;-69
2021/04/05 17:19:42;;;;;;;3.38;0.93;;;;;;;4.44;43.16;99648.06;10371413;28;20077;-69
2021/04/05 17:24:47;;;;;;;3.63;1.20;;;;;;;3.94;43.96;99639.00;10372823;28;20068;-70
2021/04/05 17:30:09;;;;;;;5.72;1.50;;;;;;;3.95;45.32;99653.81;10392741;28;20317;-69
2021/04/05 17:35:22;;;;;;;3.85;1.42;;;;;;;3.62;45.24;99668.13;10385793;28;20049;-69
2021/04/05 17:40:31;;;;;;;4.18;1.25;;;;;;;3.54;45.70;99673.88;10375689;28;20146;-70
2021/04/05 17:45:41;;;;;;;3.15;0.88;;;;;;;3.56;46.29;99684.31;10382374;28;20049;-69
2021/04/05 17:50:45;;;;;;;3.15;0.80;;;;;;;3.78;45.65;99697.84;10384423;28;20053;-68
2021/04/05 17:56:13;;;;;;;3.05;1.17;;;;;;;3.83;45.68;99706.31;10365710;28;20128;-71
2021/04/05 18:01:19;;;;;;;2.15;0.85;;;;;;;3.89;44.84;99711.22;10372605;28;20419;-70
2021/04/05 18:06:43;;;;;;;3.22;0.90;;;;;;;4.01;44.43;99724.59;10379883;28;20053;-67
2021/04/05 18:12:08;;;;;;;3.25;1.20;;;;;;;3.81;45.30;99723.97;10373323;28;20050;-69
2021/04/05 18:17:50;;;;;;;2.22;0.73;;;;;;;4.00;44.60;99728.16;10373344;28;20510;-70
2021/04/05 18:23:16;;;;;;;3.83;1.50;;;;;;;4.10;44.21;99745.09;10383387;28;20096;-68
2021/04/05 18:28:24;;;;;;;1.67;1.10;;;;;;;4.13;44.48;99762.47;10384967;28;20049;-67
2021/04/05 18:33:41;;;;;;;2.40;1.10;;;;;;;4.07;45.39;99766.34;10383075;28;20046;-68
2021/04/05 18:38:43;;;;;;;4.40;1.38;;;;;;;4.03;46.15;99773.56;10391412;28;20128;-70
2021/04/05 18:43:46;;;;;;;2.17;1.02;;;;;;;3.80;47.59;99787.25;10392693;28;20049;-70
2021/04/05 18:48:50;;;;;;;1.38;0.70;;;;;;;3.64;48.90;99801.34;10384761;28;20053;-70
2021/04/05 18:54:08;;;;;;;1.70;0.90;;;;;;;3.67;50.08;99808.22;10376366;28;20045;-69
2021/04/05 18:59:18;;;;;;;4.50;1.30;;;;;;;3.80;50.05;99814.47;10362394;28;20118;-69
2021/04/05 19:04:26;;;;;;;3.22;1.17;;;;;;;3.87;50.08;99813.16;10375295;28;20049;-71
2021/04/05 19:09:28;;;;;;;3.30;1.40;;;;;;;3.96;50.16;99827.53;10375334;22;20141;-59
2021/04/05 19:15:07;;;;;;;4.45;1.50;;;;;;;4.13;50.60;99829.19;10346010;28;20473;-60
2021/04/05 19:20:11;;;;;;;5.00;2.10;;;;;;;4.27;50.57;99840.69;10344708;28;20556;-59
2021/04/05 19:25:50;;;;;;;5.45;2.35;;;;;;;4.02;50.78;99840.38;10344964;28;20107;-59
2021/04/05 19:30:51;;;;;;;2.78;1.15;;;;;;;4.04;50.03;99856.09;10290360;28;20120;-59
2021/04/05 19:36:22;;;;;;;2.17;1.45;;;;;;;3.94;50.26;99854.94;10359157;28;20173;-60
2021/04/05 19:42:08;;;;;;;2.33;1.55;;;;;;;3.84;49.72;99860.75;10355494;28;20445;-60
2021/04/05 19:47:31;;;;;;;3.25;1.10;;;;;;;3.74;48.91;99854.31;10357324;28;20057;-59
2021/04/05 19:53:11;;;;;;;3.28;1.30;;;;;;;3.85;49.07;99849.25;10334166;28;20653;-59
2021/04/05 19:58:33;;;;;;;2.65;1.15;;;;;;;4.02;49.07;99863.22;10330420;28;20128;-59
2021/04/05 20:03:59;;;;;;;2.83;1.00;;;;;;;3.54;48.27;99861.59;10349137;28;20083;-59
2021/04/05 20:09:12;;;;;;;4.88;1.17;;;;;;;3.44;49.27;99863.03;10355531;28;20045;-60
2021/04/05 20:14:41;;;;;;;1.83;0.85;;;;;;;3.51;49.03;99864.41;10355375;28;20057;-60
2021/04/05 20:19:55;;;;;;;1.63;1.02;;;;;;;3.58;47.88;99864.03;10355218;28;20045;-59
2021/04/05 20:25:20;;;;;;;3.60;1.00;;;;;;;3.69;48.10;99869.53;10357581;28;20050;-59
2021/04/05 20:30:40;;;;;;;2.00;0.95;;;;;;;3.21;48.54;99860.88;10351182;28;20119;-59
2021/04/05 20:35:54;;;;;;;2.08;0.90;;;;;;;3.50;48.86;99872.38;10331828;28;20050;-59
2021/04/05 20:41:12;;;;;;;2.03;1.02;;;;;;;3.21;49.90;99869.59;10346171;28;20046;-60
2021/04/05 20:46:40;;;;;;;2.45;1.00;;;;;;;3.30;51.43;99891.91;10337442;28;20080;-60
2021/04/05 20:52:07;;;;;;;2.28;0.85;;;;;;;3.72;51.15;99899.16;10335894;28;20049;-65
2021/04/05 20:57:17;;;;;;;2.05;1.00;;;;;;;3.16;53.53;99924.25;10345603;28;20053;-60
2021/04/05 21:02:28;;;;;;;2.63;1.40;;;;;;;2.46;59.00;99922.69;10329063;28;20119;-61
2021/04/05 21:07:31;;;;;;;2.15;0.95;;;;;;;3.12;59.37;99920.09;10296098;28;20054;-60
2021/04/05 21:12:41;;;;;;;3.22;1.58;;;;;;;3.34;58.12;99885.56;10301471;28;20057;-59
2021/04/05 21:17:56;;;;;;;3.75;0.90;;;;;;;3.41;57.65;99904.47;10318797;28;20054;-59
2021/04/05 21:23:04;;;;;;;3.17;1.00;;;;;;;3.27;58.23;99881.56;10326963;28;20128;-60
2021/04/05 21:28:10;;;;;;;1.45;1.00;;;;;;;3.22;58.28;99873.94;10352375;28;20073;-60
2021/04/05 21:33:15;;;;;;;;;;;;;;;3.12;58.17;99881.50;10345909;28;20114;-59
2021/04/05 21:38:23;;;;;;;3.13;1.25;;;;;;;2.72;58.39;99873.16;10344950;28;19929;-60
2021/04/05 21:43:49;;;;;;;3.08;1.20;;;;;;;2.80;58.47;99862.22;10336645;28;20074;-59
2021/04/05 21:49:06;;;;;;;2.53;1.15;;;;;;;2.60;57.11;99860.69;10333693;28;20528;-65
2021/04/05 21:54:38;;;;;;;3.60;1.20;;;;;;;2.54;58.06;99874.13;10336714;28;20043;-59
2021/04/05 21:59:40;;;;;;;3.28;1.10;;;;;;;2.74;57.38;99879.16;10338614;28;20780;-59
2021/04/05 22:04:48;;;;;;;2.65;1.60;;;;;;;2.67;56.79;99864.66;10336938;28;20096;-61
2021/04/05 22:09:51;;;;;;;2.08;1.00;;;;;;;2.64;56.55;99888.47;10337437;28;20046;-60
2021/04/05 22:15:09;;;;;;;2.90;1.15;;;;;;;2.52;55.89;99883.88;10332556;28;20054;-60
2021/04/05 22:20:14;;;;;;;2.47;1.10;;;;;;;2.17;56.32;99869.03;10333033;28;20052;-60
2021/04/05 22:25:15;;;;;;;2.45;0.85;;;;;;;2.08;56.25;99870.34;10335996;28;20045;-59
2021/04/05 22:30:25;;;;;;;3.60;1.10;;;;;;;2.29;55.08;99868.38;10342836;28;20133;-58
2021/04/05 22:35:29;;;;;;;3.95;1.60;;;;;;;2.39;53.95;99871.41;10342119;28;20073;-58
2021/04/05 22:40:30;;;;;;;2.17;0.90;;;;;;;2.36;54.00;99847.91;10340689;28;20577;-64
2021/04/05 22:45:33;;;;;;;4.07;1.30;;;;;;;2.62;53.94;99869.31;10334196;28;20735;-59
2021/04/05 22:50:37;;;;;;;4.15;1.30;;;;;;;2.88;52.93;99853.91;10328905;28;20073;-59
2021/04/05 22:55:40;;;;;;;3.63;1.40;;;;;;;2.94;51.96;99858.84;10347333;28;20054;-59
2021/04/05 23:00:42;;;;;;;4.10;1.27;;;;;;;2.79;52.47;99865.78;10350356;28;20058;-59
2021/04/05 23:06:04;;;;;;;3.70;1.50;;;;;;;2.70;52.50;99877.63;10347856;28;20089;-60
2021/04/05 23:11:06;;;;;;;6.63;2.13;;;;;;;2.70;52.91;99888.16;10347710;28;20061;-59
2021/04/05 23:16:13;;;;;;;4.07;1.08;;;;;;;2.79;52.41;99874.53;10350228;28;20112;-59
2021/04/05 23:21:15;;;;;;;5.38;1.17;;;;;;;2.67;52.88;99855.94;10346069;28;20054;-59
2021/04/05 23:26:20;;;;;;;7.50;1.85;;;;;;;2.67;52.41;99841.00;10340822;28;20570;-58
2021/04/05 23:31:22;;;;;;;;;;;;;;;2.53;53.01;99833.03;10331206;28;20053;-58
2021/04/05 23:36:25;;;;;;;2.33;1.20;;;;;;;2.42;53.77;99812.59;10339131;28;19977;-59
2021/04/05 23:41:28;;;;;;;4.75;1.50;;;;;;;2.65;52.83;99821.84;10322691;28;20433;-58
2021/04/05 23:46:29;;;;;;;6.60;1.92;;;;;;;2.45;52.82;99829.03;10351251;28;20050;-59
2021/04/05 23:51:35;;;;;;;3.28;1.05;;;;;;;2.53;53.42;99819.91;10354366;28;20105;-63
2021/04/05 23:56:37;;;;;;;3.08;1.30;;;;;;;2.38;53.71;99819.78;10340518;28;20077;-60
